Time;durP1;ratioP1;P1;durP2;ratioP2;P2;SDS_P1;SDS_P2;PMS_P1;PMS_P2;Temp;Humidity;BMP_temperature;BMP_pressure;BME280_temperature;BME280_humidity;BME280_pressure;Samples;Min_cycle;Max_cycle;Signal;HPM_P1;HPM_P2
2023/08/06 00:02:19;;;;;;;0.00;0.00;;;;;;;10.68;nan;100221.97;6245256;23;20004;-77
2023/08/06 00:04:44;;;;;;;0.00;0.00;;;;;;;10.87;nan;100225.00;6246740;23;20015;-77
2023/08/06 00:07:10;;;;;;;0.00;0.00;;;;;;;10.98;nan;100228.56;6220275;23;20008;-78
2023/08/06 00:09:35;;;;;;;0.00;0.00;;;;;;;10.88;nan;100229.38;6196250;23;20079;-77
2023/08/06 00:12:03;;;;;;;0.00;0.00;;;;;;;10.85;nan;100229.94;6196244;23;20012;-77
2023/08/06 00:14:28;;;;;;;0.00;0.00;;;;;;;10.78;nan;100234.84;6194737;23;20015;-76
2023/08/06 00:16:56;;;;;;;0.00;0.00;;;;;;;10.67;nan;100222.25;6218762;23;20004;-77
2023/08/06 00:19:21;;;;;;;0.00;0.00;;;;;;;10.69;nan;100226.38;6217860;23;20004;-76
2023/08/06 00:21:47;;;;;;;0.00;0.00;;;;;;;10.62;nan;100229.34;6218710;23;20099;-76
2023/08/06 00:24:12;;;;;;;0.00;0.00;;;;;;;10.74;nan;100244.69;6194811;23;20008;-77
2023/08/06 00:26:38;;;;;;;0.00;0.00;;;;;;;10.69;nan;100239.19;6194516;23;20012;-77
2023/08/06 00:29:03;;;;;;;0.00;0.00;;;;;;;10.63;nan;100247.41;6219910;23;20012;-76
2023/08/06 00:31:29;;;;;;;0.00;0.00;;;;;;;10.65;nan;100247.94;6220217;23;20122;-76
2023/08/06 00:33:57;;;;;;;0.00;0.00;;;;;;;10.52;nan;100237.53;6194530;23;20012;-76
2023/08/06 00:36:22;;;;;;;0.00;0.00;;;;;;;10.54;nan;100246.31;6220052;23;20008;-75
2023/08/06 00:38:48;;;;;;;0.00;0.00;;;;;;;10.63;nan;100265.72;6246051;23;20741;-77
2023/08/06 00:41:13;;;;;;;0.05;0.05;;;;;;;10.58;nan;100261.06;6195151;23;20008;-78
2023/08/06 00:43:39;;;;;;;0.00;0.00;;;;;;;10.56;nan;100260.53;6218998;23;20434;-77
2023/08/06 00:46:05;;;;;;;0.00;0.00;;;;;;;10.49;nan;100254.50;6220675;22;20087;-78
2023/08/06 00:48:33;;;;;;;0.00;0.00;;;;;;;10.55;nan;100264.34;6194701;23;20012;-76
2023/08/06 00:50:59;;;;;;;0.00;0.00;;;;;;;10.49;nan;100254.50;6245824;23;20007;-77
2023/08/06 00:53:24;;;;;;;0.00;0.00;;;;;;;10.56;nan;100281.59;6193746;23;20007;-77
2023/08/06 00:55:50;;;;;;;0.00;0.00;;;;;;;10.60;nan;100293.59;6193789;23;20015;-76
2023/08/06 00:58:16;;;;;;;0.00;0.00;;;;;;;10.56;nan;100298.81;6218964;23;20004;-77
2023/08/06 01:19:36;;;;;;;0.00;0.00;;;;;;;10.38;100.00;100302.00;5099425;27;20863;-80
2023/08/06 01:22:02;;;;;;;0.00;0.00;;;;;;;10.28;100.00;100281.72;5070396;28;20056;-76
2023/08/06 01:24:27;;;;;;;0.00;0.00;;;;;;;10.40;100.00;100305.31;5051646;28;20117;-75
2023/08/06 01:27:08;;;;;;;0.00;0.00;;;;;;;10.38;100.00;100310.22;5068844;28;20046;-77
2023/08/06 01:29:48;;;;;;;0.00;0.00;;;;;;;10.27;100.00;100307.41;5085623;28;20028;-75
2023/08/06 01:32:16;;;;;;;0.00;0.00;;;;;;;10.34;100.00;100306.34;5085795;28;20115;-75
2023/08/06 01:34:44;;;;;;;0.00;0.00;;;;;;;10.30;100.00;100306.88;5085421;28;20036;-76
2023/08/06 01:37:11;;;;;;;0.00;0.00;;;;;;;10.31;100.00;100305.78;5064064;28;20025;-75
2023/08/06 01:39:36;;;;;;;0.00;0.00;;;;;;;10.28;100.00;100309.06;5075326;28;20028;-76
2023/08/06 01:42:02;;;;;;;0.00;0.00;;;;;;;10.22;100.00;100307.41;5068681;28;20032;-79
2023/08/06 01:44:27;;;;;;;0.00;0.00;;;;;;;10.23;100.00;100314.50;5078909;28;20024;-76
2023/08/06 01:46:53;;;;;;;0.00;0.00;;;;;;;10.21;100.00;100324.88;5078121;28;20032;-75
2023/08/06 01:49:18;;;;;;;0.00;0.00;;;;;;;10.15;100.00;100323.22;5085629;28;20070;-75
2023/08/06 01:51:44;;;;;;;0.00;0.00;;;;;;;10.10;100.00;100328.63;5082289;28;20028;-74
2023/08/06 01:54:09;;;;;;;0.00;0.00;;;;;;;10.02;100.00;100320.97;5113800;28;20020;-74
2023/08/06 01:56:34;;;;;;;0.00;0.00;;;;;;;10.03;100.00;100328.06;5066888;28;20125;-75
2023/08/06 01:59:00;;;;;;;0.00;0.00;;;;;;;10.00;100.00;100328.59;5068696;28;20048;-76
2023/08/06 02:01:25;;;;;;;0.00;0.00;;;;;;;9.96;100.00;100329.13;5084864;28;20075;-75
2023/08/06 02:03:51;;;;;;;0.00;0.00;;;;;;;9.93;100.00;100335.09;5085434;28;20044;-75
2023/08/06 02:06:16;;;;;;;0.00;0.00;;;;;;;9.88;100.00;100343.25;5084154;28;20090;-76
2023/08/06 02:08:41;;;;;;;0.00;0.00;;;;;;;9.89;100.00;100342.19;5067237;28;20028;-76
2023/08/06 02:23:20;;;;;;;0.00;0.00;;;;;;;9.86;100.00;100339.97;5118989;27;20726;-75
2023/08/06 02:25:48;;;;;;;0.00;0.00;;;;;;;9.90;100.00;100352.03;5087463;28;20767;-76
2023/08/06 02:40:56;;;;;;;0.00;0.00;;;;;;;9.84;100.00;100346.78;5104999;27;21205;-79
2023/08/06 02:43:22;;;;;;;0.00;0.00;;;;;;;9.90;100.00;100351.19;5105375;28;20036;-76
2023/08/06 02:45:47;;;;;;;0.00;0.00;;;;;;;9.88;100.00;100359.66;5104126;28;20047;-76
2023/08/06 02:48:13;;;;;;;0.00;0.00;;;;;;;9.81;100.00;100352.78;5095095;28;20435;-75
2023/08/06 02:50:41;;;;;;;0.00;0.00;;;;;;;9.79;100.00;100350.31;5103876;28;20036;-74
2023/08/06 02:53:07;;;;;;;0.00;0.00;;;;;;;9.79;100.00;100344.84;5090130;28;20028;-75
2023/08/06 02:55:34;;;;;;;0.00;0.00;;;;;;;9.76;100.00;100351.66;5107294;28;20024;-78
2023/08/06 02:58:03;;;;;;;0.00;0.00;;;;;;;9.69;100.00;100347.50;5087396;28;20509;-78
2023/08/06 03:00:28;;;;;;;0.00;0.00;;;;;;;9.71;100.00;100354.34;5078716;28;20038;-78
2023/08/06 03:02:54;;;;;;;0.00;0.00;;;;;;;9.60;100.00;100337.06;5059896;28;20032;-79
2023/08/06 03:05:19;;;;;;;0.00;0.00;;;;;;;9.57;100.00;100353.97;5086906;28;20532;-77
2023/08/06 03:07:45;;;;;;;0.00;0.00;;;;;;;9.61;100.00;100367.94;5094839;28;20446;-77
2023/08/06 03:10:10;;;;;;;0.00;0.00;;;;;;;9.60;100.00;100374.47;5099799;28;20016;-77
2023/08/06 03:12:36;;;;;;;0.00;0.00;;;;;;;9.54;100.00;100359.94;5100875;28;20028;-78
2023/08/06 03:15:01;;;;;;;0.00;0.00;;;;;;;9.65;100.00;100377.25;5079940;28;20035;-77
2023/08/06 03:17:27;;;;;;;0.00;0.00;;;;;;;9.60;100.00;100367.09;5096468;28;20478;-77
2023/08/06 03:19:52;;;;;;;0.00;0.00;;;;;;;9.57;100.00;100348.50;5089665;28;20031;-78
2023/08/06 03:22:18;;;;;;;0.00;0.00;;;;;;;9.77;100.00;100358.75;5079949;28;20034;-76
2023/08/06 03:24:43;;;;;;;0.00;0.00;;;;;;;9.84;100.00;100368.63;5073029;28;20028;-78
2023/08/06 03:27:08;;;;;;;0.00;0.00;;;;;;;9.78;100.00;100363.16;5073241;28;20032;-78
2023/08/06 03:29:34;;;;;;;0.00;0.00;;;;;;;9.86;100.00;100367.28;5089872;28;20153;-76
2023/08/06 03:31:59;;;;;;;0.00;0.00;;;;;;;9.89;100.00;100371.41;5095571;28;20478;-77
2023/08/06 03:34:24;;;;;;;0.00;0.00;;;;;;;9.91;100.00;100378.22;5068793;28;20024;-77
2023/08/06 03:36:50;;;;;;;0.00;0.00;;;;;;;9.83;100.00;100367.81;5074892;28;20039;-78
2023/08/06 03:39:15;;;;;;;0.00;0.00;;;;;;;9.79;100.00;100361.22;5104277;28;20127;-78
2023/08/06 03:41:41;;;;;;;0.00;0.00;;;;;;;9.82;100.00;100363.44;5083068;28;20090;-77
2023/08/06 03:44:06;;;;;;;0.00;0.00;;;;;;;9.83;100.00;100376.00;5068372;28;20501;-77
2023/08/06 03:46:33;;;;;;;0.00;0.00;;;;;;;9.78;100.00;100375.97;5087606;28;20482;-78
2023/08/06 03:49:02;;;;;;;0.00;0.00;;;;;;;9.70;100.00;100362.81;5084620;28;20074;-78
2023/08/06 03:51:27;;;;;;;0.00;0.00;;;;;;;9.76;100.00;100373.50;5087114;28;20089;-75
2023/08/06 03:53:52;;;;;;;0.00;0.00;;;;;;;9.71;100.00;100365.28;5071793;28;20021;-77
2023/08/06 03:56:18;;;;;;;0.00;0.00;;;;;;;9.66;100.00;100345.31;5084253;28;20474;-75
2023/08/06 03:58:43;;;;;;;0.00;0.00;;;;;;;9.73;100.00;100367.75;5083295;28;20031;-76
2023/08/06 04:01:09;;;;;;;0.00;0.00;;;;;;;9.65;100.00;100354.56;5074703;28;20029;-76
2023/08/06 04:03:34;;;;;;;0.00;0.00;;;;;;;9.74;100.00;100369.41;5092450;28;20110;-77
2023/08/06 04:06:01;;;;;;;0.00;0.00;;;;;;;9.68;100.00;100365.81;5079194;28;20031;-77
2023/08/06 04:08:26;;;;;;;0.00;0.00;;;;;;;9.60;100.00;100358.91;5089607;28;20383;-77
2023/08/06 04:10:52;;;;;;;0.00;0.00;;;;;;;9.59;100.00;100373.66;5089986;28;20032;-77
2023/08/06 04:13:18;;;;;;;0.00;0.00;;;;;;;9.66;100.00;100381.59;5092016;28;20031;-76
2023/08/06 04:15:44;;;;;;;0.00;0.00;;;;;;;9.65;100.00;100387.34;5078072;28;20032;-76
2023/08/06 04:18:09;;;;;;;0.00;0.00;;;;;;;9.57;100.00;100381.25;5076071;28;20031;-75
2023/08/06 04:20:35;;;;;;;0.00;0.00;;;;;;;9.58;100.00;100382.91;5093306;28;20474;-75
2023/08/06 04:23:06;;;;;;;0.00;0.00;;;;;;;9.59;100.00;100389.19;5074178;28;20374;-75
2023/08/06 04:25:31;;;;;;;0.00;0.00;;;;;;;9.57;100.00;100380.44;5075754;28;20021;-76
2023/08/06 04:27:57;;;;;;;0.00;0.00;;;;;;;9.50;100.00;100375.19;5071558;28;20127;-77
2023/08/06 04:30:22;;;;;;;0.00;0.00;;;;;;;9.66;100.00;100402.63;5080833;28;20038;-76
2023/08/06 04:32:50;;;;;;;0.00;0.00;;;;;;;9.68;100.00;100392.28;5087459;28;20024;-77
2023/08/06 04:35:15;;;;;;;0.00;0.00;;;;;;;9.68;100.00;100397.72;5082932;28;20017;-77
2023/08/06 04:37:41;;;;;;;0.00;0.00;;;;;;;9.72;100.00;100398.84;5082424;28;20034;-75
2023/08/06 04:40:07;;;;;;;0.00;0.00;;;;;;;9.75;100.00;100404.63;5065013;28;20079;-76
2023/08/06 04:42:32;;;;;;;0.00;0.00;;;;;;;9.72;100.00;100409.78;5055600;28;20089;-75
2023/08/06 04:44:58;;;;;;;0.00;0.00;;;;;;;9.72;100.00;100412.50;5083212;28;20529;-76
2023/08/06 04:47:23;;;;;;;0.00;0.00;;;;;;;9.72;100.00;100409.78;5067610;28;20074;-76
2023/08/06 04:49:48;;;;;;;0.00;0.00;;;;;;;9.70;100.00;100411.97;5065382;28;20469;-75
2023/08/06 04:52:14;;;;;;;0.00;0.00;;;;;;;9.69;100.00;100408.38;5069710;28;20115;-75
2023/08/06 04:54:39;;;;;;;0.00;0.00;;;;;;;9.68;100.00;100411.38;5070292;28;20049;-75
2023/08/06 04:57:05;;;;;;;0.00;0.00;;;;;;;9.70;100.00;100422.88;5067477;28;20032;-74
2023/08/06 04:59:30;;;;;;;0.00;0.00;;;;;;;9.67;100.00;100407.84;5083862;28;20058;-76
2023/08/06 05:01:55;;;;;;;0.00;0.00;;;;;;;9.73;100.00;100422.34;5085602;28;20497;-76
2023/08/06 05:04:21;;;;;;;0.00;0.00;;;;;;;9.77;100.00;100429.75;5090197;28;20032;-76
2023/08/06 05:06:48;;;;;;;0.00;0.00;;;;;;;9.68;100.00;100414.94;5055750;28;20031;-76
2023/08/06 05:09:13;;;;;;;0.00;0.00;;;;;;;9.74;100.00;100429.47;5089431;28;20557;-76
2023/08/06 05:11:38;;;;;;;0.00;0.00;;;;;;;9.65;100.00;100441.94;5065201;28;20043;-76
2023/08/06 05:14:04;;;;;;;0.00;0.00;;;;;;;9.53;100.00;100445.66;5070424;28;20060;-77
2023/08/06 05:16:29;;;;;;;0.00;0.00;;;;;;;9.44;100.00;100445.28;5078452;28;20056;-77
2023/08/06 05:18:55;;;;;;;0.00;0.00;;;;;;;9.40;100.00;100448.81;5054468;28;20493;-76
2023/08/06 05:21:20;;;;;;;0.00;0.00;;;;;;;9.40;100.00;100449.66;5090045;28;20036;-77
2023/08/06 05:23:45;;;;;;;0.00;0.00;;;;;;;9.34;100.00;100447.09;5082526;28;20077;-77
2023/08/06 05:26:11;;;;;;;0.00;0.00;;;;;;;9.44;100.00;100452.66;5059031;28;20028;-76
2023/08/06 05:28:36;;;;;;;0.00;0.00;;;;;;;9.44;100.00;100453.47;5070689;28;20089;-77
2023/08/06 05:31:05;;;;;;;0.00;0.00;;;;;;;9.54;100.00;100451.97;5062081;28;20044;-77
2023/08/06 05:33:30;;;;;;;0.00;0.00;;;;;;;9.73;100.00;100449.66;5071554;28;20019;-78
2023/08/06 05:35:55;;;;;;;0.00;0.00;;;;;;;9.88;100.00;100451.69;5056246;28;20390;-78
2023/08/06 05:38:21;;;;;;;0.00;0.00;;;;;;;10.00;100.00;100449.59;5059455;28;20399;-77
2023/08/06 05:40:47;;;;;;;0.00;0.00;;;;;;;10.16;100.00;100458.72;5051769;28;20052;-77
2023/08/06 05:43:12;;;;;;;0.00;0.00;;;;;;;10.33;100.00;100457.78;5072933;28;20039;-77
2023/08/06 05:45:38;;;;;;;0.00;0.00;;;;;;;10.47;100.00;100465.28;5057524;28;20053;-77
2023/08/06 05:48:04;;;;;;;0.00;0.00;;;;;;;10.57;100.00;100469.97;5085571;28;20039;-78
2023/08/06 05:50:29;;;;;;;0.00;0.00;;;;;;;10.70;100.00;100476.06;5084158;28;20050;-74
2023/08/06 05:52:55;;;;;;;0.00;0.00;;;;;;;10.85;99.85;100481.63;5068937;28;20028;-75
2023/08/06 05:55:20;;;;;;;0.00;0.00;;;;;;;10.94;99.17;100480.00;5046179;28;20085;-76
2023/08/06 05:57:46;;;;;;;0.00;0.00;;;;;;;11.03;98.49;100490.44;5080888;28;20089;-75
2023/08/06 06:00:11;;;;;;;0.00;0.00;;;;;;;11.06;98.22;100493.44;5086452;28;20103;-76
2023/08/06 06:02:37;;;;;;;0.00;0.00;;;;;;;11.04;98.26;100490.19;5071339;28;20024;-76
2023/08/06 06:05:02;;;;;;;0.00;0.00;;;;;;;11.02;98.72;100491.53;5063280;28;20028;-75
2023/08/06 06:07:30;;;;;;;0.00;0.00;;;;;;;11.07;98.72;100488.78;5076884;28;20032;-75
2023/08/06 06:09:56;;;;;;;0.00;0.00;;;;;;;11.20;98.25;100498.41;5081765;28;20024;-74
2023/08/06 06:12:22;;;;;;;0.00;0.00;;;;;;;11.30;97.24;100503.94;5086505;28;20067;-75
2023/08/06 06:14:47;;;;;;;0.00;0.00;;;;;;;11.46;96.57;100507.53;5070961;28;20055;-75
2023/08/06 06:17:13;;;;;;;0.00;0.00;;;;;;;11.56;96.27;100506.75;5073585;28;20451;-78
2023/08/06 06:19:38;;;;;;;0.00;0.00;;;;;;;11.66;95.85;100507.59;5054699;28;20016;-75
2023/08/06 06:22:04;;;;;;;0.00;0.00;;;;;;;11.72;94.79;100493.91;5049892;28;20059;-75
2023/08/06 06:24:32;;;;;;;0.00;0.00;;;;;;;11.88;93.92;100510.09;5075764;28;20033;-74
2023/08/06 06:26:57;;;;;;;0.00;0.00;;;;;;;11.98;93.47;100503.00;5068310;28;20016;-77
2023/08/06 06:29:23;;;;;;;0.00;0.00;;;;;;;12.15;93.30;100510.94;5072205;28;20051;-76
2023/08/06 06:31:48;;;;;;;0.00;0.00;;;;;;;12.38;92.82;100524.09;5062850;28;20043;-77
2023/08/06 06:34:13;;;;;;;0.00;0.00;;;;;;;12.61;91.98;100516.38;5071123;28;20040;-77
2023/08/06 06:36:39;;;;;;;0.00;0.00;;;;;;;12.93;90.84;100512.47;5042320;28;20035;-77
2023/08/06 06:39:04;;;;;;;0.00;0.00;;;;;;;13.34;89.03;100517.81;5062241;28;20049;-76
2023/08/06 06:41:32;;;;;;;0.00;0.00;;;;;;;13.90;86.70;100532.31;5080035;28;20024;-78
2023/08/06 06:43:58;;;;;;;0.00;0.00;;;;;;;14.28;85.18;100530.66;5084571;28;20493;-77
2023/08/06 06:46:23;;;;;;;0.00;0.00;;;;;;;14.58;82.79;100527.91;5087021;28;20036;-77
2023/08/06 06:48:49;;;;;;;0.00;0.00;;;;;;;14.69;80.82;100532.22;5081196;28;20021;-77
2023/08/06 06:51:14;;;;;;;0.00;0.00;;;;;;;14.88;80.43;100539.72;5073206;28;20160;-76
2023/08/06 06:53:40;;;;;;;0.00;0.00;;;;;;;15.06;79.62;100525.19;5072853;28;20020;-77
2023/08/06 06:56:06;;;;;;;0.00;0.00;;;;;;;15.36;78.54;100543.28;5085834;28;20020;-77
2023/08/06 06:58:32;;;;;;;0.00;0.00;;;;;;;15.54;76.27;100549.13;5087850;28;20406;-77
2023/08/06 07:00:58;;;;;;;0.00;0.00;;;;;;;15.52;75.23;100534.81;5081673;28;20027;-77
2023/08/06 07:03:30;;;;;;;0.00;0.00;;;;;;;15.53;74.91;100541.97;5070884;28;20025;-77
2023/08/06 07:05:59;;;;;;;0.00;0.00;;;;;;;15.65;74.82;100549.78;5051922;28;20186;-78
2023/08/06 07:08:25;;;;;;;0.00;0.00;;;;;;;15.74;74.28;100556.31;5082977;28;20101;-78
2023/08/06 07:10:51;;;;;;;0.00;0.00;;;;;;;15.76;73.97;100556.81;5066886;28;20025;-78
2023/08/06 07:13:16;;;;;;;0.00;0.00;;;;;;;15.79;73.40;100539.69;5081245;28;20035;-77
2023/08/06 07:15:42;;;;;;;0.00;0.00;;;;;;;15.92;73.45;100564.91;5075283;28;20044;-75
2023/08/06 07:18:07;;;;;;;0.00;0.00;;;;;;;15.87;72.62;100547.31;5086067;28;20115;-77
2023/08/06 07:20:38;;;;;;;0.00;0.00;;;;;;;15.90;72.08;100551.38;5078547;28;20043;-77
2023/08/06 07:23:03;;;;;;;0.00;0.00;;;;;;;16.08;72.16;100547.00;5060429;28;20040;-77
2023/08/06 07:25:28;;;;;;;0.00;0.00;;;;;;;16.31;71.07;100556.28;5064327;28;20036;-76
2023/08/06 07:27:54;;;;;;;0.00;0.00;;;;;;;16.37;70.33;100554.25;5058778;28;20033;-77
2023/08/06 07:30:19;;;;;;;0.00;0.00;;;;;;;16.52;70.41;100556.72;5061524;28;20398;-76
2023/08/06 07:32:44;;;;;;;0.00;0.00;;;;;;;16.55;69.74;100558.88;5058406;28;20032;-77
2023/08/06 07:35:12;;;;;;;0.00;0.00;;;;;;;16.60;69.65;100557.97;5070885;28;20028;-78
2023/08/06 07:37:38;;;;;;;0.00;0.00;;;;;;;16.53;69.41;100552.84;5061959;28;20035;-78
2023/08/06 07:40:05;;;;;;;0.00;0.00;;;;;;;16.50;69.61;100553.47;5080538;28;20040;-79
2023/08/06 07:42:30;;;;;;;0.00;0.00;;;;;;;16.30;69.80;100565.66;5090527;28;20024;-78
2023/08/06 07:45:07;;;;;;;0.00;0.00;;;;;;;15.94;70.25;100554.38;5090943;28;20077;-78
2023/08/06 07:47:32;;;;;;;0.00;0.00;;;;;;;15.61;71.46;100549.56;5082439;28;20074;-78
2023/08/06 07:49:58;;;;;;;0.00;0.00;;;;;;;15.36;72.53;100548.81;5071443;28;20095;-77
2023/08/06 07:52:31;;;;;;;0.00;0.00;;;;;;;15.24;73.34;100550.34;5073900;28;20039;-78
2023/08/06 07:54:56;;;;;;;0.00;0.00;;;;;;;15.26;75.04;100550.84;5087907;28;20036;-74
2023/08/06 07:57:21;;;;;;;0.00;0.00;;;;;;;15.22;74.78;100542.38;5080169;28;20069;-76
2023/08/06 07:59:47;;;;;;;0.00;0.00;;;;;;;15.23;74.60;100556.94;5065883;28;20378;-75
2023/08/06 08:02:12;;;;;;;0.00;0.00;;;;;;;15.26;75.07;100548.94;5083449;28;20039;-75
2023/08/06 08:04:38;;;;;;;0.00;0.00;;;;;;;15.29;75.27;100544.78;5088272;28;20077;-75
2023/08/06 08:07:03;;;;;;;0.00;0.00;;;;;;;15.36;74.92;100551.56;5064879;28;20538;-76
2023/08/06 08:09:29;;;;;;;0.00;0.00;;;;;;;15.48;75.29;100567.66;5054610;28;20017;-75
2023/08/06 08:11:54;;;;;;;0.00;0.00;;;;;;;15.53;74.87;100559.31;5077592;28;20103;-74
2023/08/06 08:14:20;;;;;;;0.00;0.00;;;;;;;15.73;74.86;100556.59;5089094;28;20784;-76
2023/08/06 08:16:45;;;;;;;0.00;0.00;;;;;;;15.82;74.37;100560.34;5071283;28;20134;-75
2023/08/06 08:19:11;;;;;;;0.00;0.00;;;;;;;15.85;73.56;100559.75;5068833;28;20057;-77
2023/08/06 08:21:36;;;;;;;0.00;0.00;;;;;;;15.98;73.84;100553.47;5051982;28;20462;-78
2023/08/06 08:24:04;;;;;;;0.00;0.00;;;;;;;16.06;73.46;100549.22;5084918;28;20442;-77
2023/08/06 08:26:34;;;;;;;0.00;0.00;;;;;;;16.37;73.09;100548.75;5081661;28;20050;-78
2023/08/06 08:29:09;;;;;;;0.00;0.00;;;;;;;17.00;72.37;100543.75;5074617;28;20021;-78
2023/08/06 08:31:39;;;;;;;0.00;0.00;;;;;;;17.49;70.40;100556.00;5082390;28;20035;-78
2023/08/06 08:34:05;;;;;;;0.00;0.00;;;;;;;17.39;68.83;100551.53;5091330;28;20024;-78
2023/08/06 08:36:30;;;;;;;0.00;0.00;;;;;;;17.03;68.28;100551.44;5088361;28;20517;-77
2023/08/06 08:38:56;;;;;;;0.00;0.00;;;;;;;17.07;68.73;100571.81;5070787;28;20090;-78
2023/08/06 08:41:21;;;;;;;0.00;0.00;;;;;;;17.30;68.22;100561.63;5090187;28;20036;-78
2023/08/06 08:43:51;;;;;;;0.00;0.00;;;;;;;17.62;66.47;100559.88;5072377;28;20470;-77
2023/08/06 08:46:21;;;;;;;0.00;0.00;;;;;;;17.83;65.58;100564.94;5087272;28;20028;-80
2023/08/06 08:48:49;;;;;;;0.00;0.00;;;;;;;18.07;65.39;100553.63;5069429;28;20382;-81
2023/08/06 08:51:27;;;;;;;0.00;0.00;;;;;;;18.38;63.59;100563.94;5081738;28;20040;-79
2023/08/06 08:53:57;;;;;;;0.00;0.00;;;;;;;18.76;62.28;100538.59;5082763;28;20020;-80
2023/08/06 08:56:23;;;;;;;0.00;0.00;;;;;;;19.34;61.67;100540.28;5078134;28;20030;-81
2023/08/06 08:58:49;;;;;;;0.00;0.00;;;;;;;19.92;60.32;100548.56;5084952;28;20028;-79
2023/08/06 09:01:15;;;;;;;0.00;0.00;;;;;;;20.05;58.79;100557.88;5069984;28;20024;-78
2023/08/06 09:03:42;;;;;;;0.00;0.00;;;;;;;20.13;58.22;100553.44;5085386;28;20032;-78
2023/08/06 09:06:11;;;;;;;0.00;0.00;;;;;;;19.78;56.76;100551.47;5079330;28;20111;-78
2023/08/06 09:08:43;;;;;;;0.00;0.00;;;;;;;19.56;57.72;100540.50;5069633;28;20735;-78
2023/08/06 09:11:12;;;;;;;0.00;0.00;;;;;;;19.40;57.68;100554.00;5084528;28;20170;-78
2023/08/06 09:13:41;;;;;;;0.00;0.00;;;;;;;19.56;57.62;100552.41;5085006;28;20059;-78
2023/08/06 09:16:06;;;;;;;0.00;0.00;;;;;;;19.66;55.36;100557.63;5054917;28;20020;-79
2023/08/06 09:18:34;;;;;;;0.00;0.00;;;;;;;19.79;55.25;100557.84;5066721;28;20025;-79
2023/08/06 09:20:59;;;;;;;0.00;0.00;;;;;;;20.02;54.80;100556.56;5073625;28;20033;-77
2023/08/06 09:23:30;;;;;;;0.00;0.00;;;;;;;20.64;54.07;100557.28;5037472;28;20024;-76
2023/08/06 09:25:56;;;;;;;0.00;0.00;;;;;;;21.41;52.61;100556.50;5077399;28;20387;-78
2023/08/06 09:28:24;;;;;;;0.00;0.00;;;;;;;21.85;50.96;100572.94;5073444;28;20020;-78
2023/08/06 09:30:50;;;;;;;0.00;0.00;;;;;;;21.73;50.50;100566.13;5061971;28;20382;-79
2023/08/06 09:33:19;;;;;;;0.00;0.00;;;;;;;21.69;50.27;100573.53;5054420;28;20035;-83
2023/08/06 09:35:48;;;;;;;0.00;0.00;;;;;;;21.24;50.14;100562.97;5079924;28;20028;-80
2023/08/06 09:38:16;;;;;;;0.00;0.00;;;;;;;21.98;49.92;100566.28;5070601;28;20379;-82
2023/08/06 09:40:43;;;;;;;0.00;0.00;;;;;;;24.19;46.12;100578.00;5058583;28;20036;-81
2023/08/06 09:43:11;;;;;;;0.00;0.00;;;;;;;27.14;39.25;100583.97;5090414;28;20520;-82
2023/08/06 09:45:38;;;;;;;0.00;0.00;;;;;;;27.64;36.59;100589.56;5089389;28;20483;-81
2023/08/06 09:48:07;;;;;;;0.00;0.00;;;;;;;28.36;36.15;100585.72;5062196;28;20029;-82
2023/08/06 09:50:39;;;;;;;0.00;0.00;;;;;;;32.16;31.69;100595.31;5077797;28;20079;-81
2023/08/06 09:53:08;;;;;;;0.00;0.00;;;;;;;35.38;28.40;100587.03;5080329;28;20108;-79
2023/08/06 09:55:34;;;;;;;0.00;0.00;;;;;;;37.98;25.28;100574.09;5062271;28;20020;-82
2023/08/06 09:58:00;;;;;;;0.00;0.00;;;;;;;40.14;22.78;100581.19;5087543;28;20024;-80
2023/08/06 10:00:31;;;;;;;0.00;0.00;;;;;;;41.13;21.24;100565.31;5088876;28;20539;-82
2023/08/06 10:03:07;;;;;;;0.00;0.00;;;;;;;38.80;21.45;100572.00;5081313;28;20032;-80
2023/08/06 10:05:39;;;;;;;0.00;0.00;;;;;;;35.07;25.07;100567.25;5081447;28;20027;-79
2023/08/06 10:08:06;;;;;;;0.00;0.00;;;;;;;34.71;24.76;100550.75;5070805;28;20024;-79
2023/08/06 10:10:35;;;;;;;0.00;0.00;;;;;;;32.26;26.24;100565.38;5083693;28;20051;-80
2023/08/06 10:13:05;;;;;;;0.00;0.00;;;;;;;32.24;28.69;100569.84;5089947;28;20115;-81
2023/08/06 10:15:32;;;;;;;0.00;0.00;;;;;;;36.98;25.03;100581.22;5085475;28;20033;-80
2023/08/06 10:18:09;;;;;;;0.00;0.00;;;;;;;39.15;22.95;100574.94;5080982;28;20387;-80
2023/08/06 10:20:35;;;;;;;0.00;0.00;;;;;;;42.52;18.95;100587.34;5081552;28;20111;-81
2023/08/06 10:23:05;;;;;;;0.00;0.00;;;;;;;44.53;17.26;100575.94;5079609;28;20542;-78
2023/08/06 10:25:33;;;;;;;0.00;0.00;;;;;;;46.20;16.47;100579.06;5080175;28;20482;-80
2023/08/06 10:27:59;;;;;;;0.00;0.00;;;;;;;45.95;14.04;100569.88;5073126;28;20035;-81
2023/08/06 10:30:36;;;;;;;0.00;0.00;;;;;;;44.75;15.15;100563.19;5083707;28;20024;-80
2023/08/06 10:33:04;;;;;;;0.00;0.00;;;;;;;40.26;17.77;100570.09;5080877;28;20116;-80
2023/08/06 10:35:43;;;;;;;0.00;0.00;;;;;;;37.30;20.28;100550.31;5083252;28;20467;-79
2023/08/06 10:38:31;;;;;;;0.00;0.00;;;;;;;37.57;20.47;100549.97;5070889;28;20078;-81
2023/08/06 10:40:57;;;;;;;0.00;0.00;;;;;;;37.04;19.54;100550.94;5083406;28;20040;-80
2023/08/06 10:43:32;;;;;;;0.00;0.00;;;;;;;35.73;21.39;100547.78;5077544;28;20461;-80
2023/08/06 10:45:59;;;;;;;0.00;0.00;;;;;;;35.18;22.22;100548.00;5072729;28;20028;-79
2023/08/06 10:48:46;;;;;;;0.00;0.00;;;;;;;33.80;23.27;100548.34;5082345;28;20051;-80
2023/08/06 10:51:15;;;;;;;0.00;0.00;;;;;;;33.17;24.62;100545.75;5085632;28;20028;-79
2023/08/06 10:53:59;;;;;;;0.00;0.00;;;;;;;32.21;25.41;100553.69;5074690;28;20354;-79
2023/08/06 10:56:26;;;;;;;0.00;0.00;;;;;;;31.38;26.54;100557.56;5073645;28;20032;-79
2023/08/06 10:58:53;;;;;;;0.00;0.00;;;;;;;30.19;27.52;100556.59;5065122;28;20036;-80
2023/08/06 11:01:18;;;;;;;0.00;0.00;;;;;;;30.04;28.03;100559.34;5088262;28;20101;-80
2023/08/06 11:03:49;;;;;;;0.00;0.00;;;;;;;30.51;27.04;100567.97;5075126;28;20063;-81
2023/08/06 11:06:19;;;;;;;0.00;0.00;;;;;;;34.69;24.13;100564.59;5085863;28;20471;-79
2023/08/06 11:08:50;;;;;;;0.00;0.00;;;;;;;37.06;22.25;100566.78;5068030;28;20437;-79
2023/08/06 11:11:17;;;;;;;0.00;0.00;;;;;;;35.44;21.08;100562.56;5084139;28;20082;-78
2023/08/06 11:13:47;;;;;;;0.00;0.00;;;;;;;32.31;24.08;100567.75;5091507;28;20032;-78
2023/08/06 11:16:23;;;;;;;0.00;0.00;;;;;;;30.02;26.79;100577.84;5083974;28;20024;-81
2023/08/06 11:18:52;;;;;;;0.00;0.00;;;;;;;28.77;29.33;100586.97;5082258;28;20042;-80
2023/08/06 11:21:21;;;;;;;0.00;0.00;;;;;;;28.17;29.62;100566.22;5074727;28;20077;-78
2023/08/06 11:23:46;;;;;;;0.00;0.00;;;;;;;27.61;30.29;100568.69;5059453;28;20482;-79
2023/08/06 11:26:14;;;;;;;0.00;0.00;;;;;;;26.78;30.76;100583.34;5072394;28;20116;-81
2023/08/06 11:28:40;;;;;;;0.00;0.00;;;;;;;25.50;32.03;100567.06;5080675;28;20077;-79
2023/08/06 11:31:05;;;;;;;0.00;0.00;;;;;;;25.31;33.23;100572.63;5057036;28;20028;-78
2023/08/06 11:33:31;;;;;;;0.00;0.00;;;;;;;25.41;34.10;100569.25;5089659;28;20085;-77
2023/08/06 11:35:58;;;;;;;0.00;0.00;;;;;;;26.09;34.00;100567.16;5089562;28;20399;-79
2023/08/06 11:38:28;;;;;;;0.00;0.00;;;;;;;27.97;31.64;100569.19;5053954;28;20051;-78
2023/08/06 11:40:54;;;;;;;0.00;0.00;;;;;;;29.14;30.37;100560.78;5066029;28;20536;-79
2023/08/06 11:43:22;;;;;;;0.00;0.00;;;;;;;32.94;25.91;100564.13;5086756;28;20059;-78
2023/08/06 11:45:50;;;;;;;0.00;0.00;;;;;;;35.97;22.06;100566.41;5071892;28;20028;-79
2023/08/06 11:48:16;;;;;;;0.00;0.00;;;;;;;38.45;19.55;100557.59;5072484;28;20477;-81
2023/08/06 11:50:42;;;;;;;0.00;0.00;;;;;;;39.19;18.43;100572.75;5092483;28;20048;-81
2023/08/06 11:53:15;;;;;;;0.00;0.00;;;;;;;41.28;18.32;100567.56;5070230;28;20113;-77
2023/08/06 11:55:43;;;;;;;0.00;0.00;;;;;;;42.72;15.88;100563.81;5075667;28;20020;-78
2023/08/06 12:02:29;;;;;;;;;;;;;;;;;;;;;
2023/08/06 12:05:53;;;;;;;;;;;;;;;;;;;;;
2023/08/06 12:11:59;;;;;;;0.00;0.00;;;;;;;43.57;16.40;100557.78;5026478;28;20092;-81
2023/08/06 12:14:24;;;;;;;0.00;0.00;;;;;;;43.42;14.67;100554.06;5040159;28;20029;-82
2023/08/06 12:16:52;;;;;;;0.00;0.00;;;;;;;39.86;16.85;100556.47;5081122;28;20035;-85
2023/08/06 12:19:17;;;;;;;0.00;0.00;;;;;;;36.78;18.36;100532.09;5064064;28;20078;-77
2023/08/06 12:21:42;;;;;;;0.00;0.00;;;;;;;34.65;20.55;100546.81;5069084;28;20035;-77